logo
Search for airport 
image banner adimage banner adimage banner ad
image banner ad

LIPG - Gorizia

Located in Gorizia, Italy

ICAO - LIPG, IATA - QGO

Data provided by Airmate  

General information

Coordinates: N45°54'24" E13°35'57"
Elevation is 206 feet MSL.
 
View others Airports in Friuli-Venezia Giulia

Operational data

Special qualification required
Current time UTC:
Current local time:
METAR: LIPQ 252220Z AUTO 11004KT 060V160 9999 NCD 15/13 Q1022
TAF: TAF LIPQ 251700Z 2518/2618 08008KT CAVOK
View NOTAMs / SUP AIP / TFR affecting this airport [VIEW]
Communications frequencies: [VIEW]

Runways:

RWY identifierQFULength (ft)Width (ft)SurfaceLDA (ft)
0422960grass
2222960grass
04GLD00UNK
22GLD00UNK
09303598UNK
27303598UNK

Airport contact information

Address: Gorizia Italy

Satellite view of LIPG